Chillicothe, Missouri
Current Conditions -  °F | °C
As of 2:55 PM on Tuesday 27 Jan 2015 (Local Time) from KGPH Reporting Station
Clear Clear  
Wind Chill: 52°   Ceiling: Unl
Heat Index: 52°   Visibility: 10mi
Dew Point: 32°   Wind: 5mph
Humidity: 47%   Direction: 150°SSE
Pressure: 30.1"   Gusts: NA
Location:  39.79°N, 93.55°W
Report Text: KGPH 272055Z AUTO 15004KT 10SM CLR 11/00 A3010 RMK AO2
Loading
Personal Weather Stations






























Interactive Weather Map New forecast layout! Learn more

10-Day Weather Forecast

Advertisements
Track Severe Weather on mobile